sensor_id;sensor_type;location;lat;lon;timestamp;temperature;humidity
46730;DHT22;32476;50.002;11.854;2022-12-10T00:01:36;-1.80;99.90
46730;DHT22;32476;50.002;11.854;2022-12-10T00:04:03;-1.80;99.90
46730;DHT22;32476;50.002;11.854;2022-12-10T00:06:32;-1.80;99.90
46730;DHT22;32476;50.002;11.854;2022-12-10T00:09:02;-1.80;99.90
46730;DHT22;32476;50.002;11.854;2022-12-10T00:11:29;-1.80;99.90
46730;DHT22;32476;50.002;11.854;2022-12-10T00:13:55;-1.80;99.90
46730;DHT22;32476;50.002;11.854;2022-12-10T00:16:25;-1.80;99.90
46730;DHT22;32476;50.002;11.854;2022-12-10T00:18:52;-1.80;99.90
46730;DHT22;32476;50.002;11.854;2022-12-10T00:21:22;-1.80;99.90
46730;DHT22;32476;50.002;11.854;2022-12-10T00:23:52;-1.80;99.90
46730;DHT22;32476;50.002;11.854;2022-12-10T00:26:21;-1.80;99.90
46730;DHT22;32476;50.002;11.854;2022-12-10T00:28:49;-1.80;99.90
46730;DHT22;32476;50.002;11.854;2022-12-10T00:31:23;-1.80;99.90
46730;DHT22;32476;50.002;11.854;2022-12-10T00:33:52;-1.80;99.90
46730;DHT22;32476;50.002;11.854;2022-12-10T00:36:23;-1.80;99.90
46730;DHT22;32476;50.002;11.854;2022-12-10T00:38:51;-1.80;99.90
46730;DHT22;32476;50.002;11.854;2022-12-10T00:41:17;-1.80;99.90
46730;DHT22;32476;50.002;11.854;2022-12-10T00:43:45;-1.80;99.90
46730;DHT22;32476;50.002;11.854;2022-12-10T00:46:12;-1.80;99.90
46730;DHT22;32476;50.002;11.854;2022-12-10T00:48:40;-1.80;99.90
46730;DHT22;32476;50.002;11.854;2022-12-10T00:51:11;-1.80;99.90
46730;DHT22;32476;50.002;11.854;2022-12-10T00:53:40;-1.80;99.90
46730;DHT22;32476;50.002;11.854;2022-12-10T00:56:10;-1.80;99.90
46730;DHT22;32476;50.002;11.854;2022-12-10T00:58:38;-1.80;99.90
46730;DHT22;32476;50.002;11.854;2022-12-10T01:03:41;-1.80;99.90
46730;DHT22;32476;50.002;11.854;2022-12-10T01:06:19;-1.80;99.90
46730;DHT22;32476;50.002;11.854;2022-12-10T01:09:03;-1.80;99.90
46730;DHT22;32476;50.002;11.854;2022-12-10T01:11:36;-1.80;99.90
46730;DHT22;32476;50.002;11.854;2022-12-10T01:14:08;-1.80;99.90
46730;DHT22;32476;50.002;11.854;2022-12-10T01:16:36;-1.80;99.90
46730;DHT22;32476;50.002;11.854;2022-12-10T01:19:03;-1.80;99.90
46730;DHT22;32476;50.002;11.854;2022-12-10T01:21:31;-1.80;99.90
46730;DHT22;32476;50.002;11.854;2022-12-10T01:23:58;-1.80;99.90
46730;DHT22;32476;50.002;11.854;2022-12-10T01:26:27;-1.80;99.90
46730;DHT22;32476;50.002;11.854;2022-12-10T01:28:56;-1.80;99.90
46730;DHT22;32476;50.002;11.854;2022-12-10T01:31:28;-1.80;99.90
46730;DHT22;32476;50.002;11.854;2022-12-10T01:33:58;-1.80;99.90
46730;DHT22;32476;50.002;11.854;2022-12-10T01:36:31;-1.80;99.90
46730;DHT22;32476;50.002;11.854;2022-12-10T01:39:02;-1.80;99.90
46730;DHT22;32476;50.002;11.854;2022-12-10T01:41:54;-1.80;99.90
46730;DHT22;32476;50.002;11.854;2022-12-10T01:46:52;-1.70;99.90
46730;DHT22;32476;50.002;11.854;2022-12-10T01:49:34;-1.70;99.90
46730;DHT22;32476;50.002;11.854;2022-12-10T01:52:06;-1.70;99.90
46730;DHT22;32476;50.002;11.854;2022-12-10T01:54:39;-1.70;99.90
46730;DHT22;32476;50.002;11.854;2022-12-10T01:57:20;-1.70;99.90
46730;DHT22;32476;50.002;11.854;2022-12-10T01:59:52;-1.70;99.90
46730;DHT22;32476;50.002;11.854;2022-12-10T02:02:43;-1.70;99.90
46730;DHT22;32476;50.002;11.854;2022-12-10T02:11:10;-1.70;99.90
46730;DHT22;32476;50.002;11.854;2022-12-10T02:13:45;-1.80;99.90
46730;DHT22;32476;50.002;11.854;2022-12-10T02:16:36;-1.80;99.90
46730;DHT22;32476;50.002;11.854;2022-12-10T02:21:56;-1.80;99.90
46730;DHT22;32476;50.002;11.854;2022-12-10T02:24:28;-1.80;99.90
46730;DHT22;32476;50.002;11.854;2022-12-10T02:27:19;-1.80;99.90
46730;DHT22;32476;50.002;11.854;2022-12-10T02:29:53;-1.80;99.90
46730;DHT22;32476;50.002;11.854;2022-12-10T02:32:23;-1.80;99.90
46730;DHT22;32476;50.002;11.854;2022-12-10T02:34:57;-1.80;99.90
46730;DHT22;32476;50.002;11.854;2022-12-10T02:37:30;-1.80;99.90
46730;DHT22;32476;50.002;11.854;2022-12-10T02:40:06;-1.80;99.90
46730;DHT22;32476;50.002;11.854;2022-12-10T02:42:38;-1.80;99.90
46730;DHT22;32476;50.002;11.854;2022-12-10T02:45:08;-1.80;99.90
46730;DHT22;32476;50.002;11.854;2022-12-10T02:47:35;-1.70;99.90
46730;DHT22;32476;50.002;11.854;2022-12-10T02:50:02;-1.80;99.90
46730;DHT22;32476;50.002;11.854;2022-12-10T02:52:30;-1.80;99.90
46730;DHT22;32476;50.002;11.854;2022-12-10T02:54:56;-1.80;99.90
46730;DHT22;32476;50.002;11.854;2022-12-10T03:01:06;-1.80;99.90
46730;DHT22;32476;50.002;11.854;2022-12-10T03:03:50;-1.80;99.90
46730;DHT22;32476;50.002;11.854;2022-12-10T03:06:36;-1.80;99.90
46730;DHT22;32476;50.002;11.854;2022-12-10T03:09:07;-1.70;99.90
46730;DHT22;32476;50.002;11.854;2022-12-10T03:11:50;-1.70;99.90
46730;DHT22;32476;50.002;11.854;2022-12-10T03:14:27;-1.70;99.90
46730;DHT22;32476;50.002;11.854;2022-12-10T03:16:58;-1.70;99.90
46730;DHT22;32476;50.002;11.854;2022-12-10T03:19:36;-1.80;99.90
46730;DHT22;32476;50.002;11.854;2022-12-10T03:22:08;-1.70;99.90
46730;DHT22;32476;50.002;11.854;2022-12-10T03:24:37;-1.80;99.90
46730;DHT22;32476;50.002;11.854;2022-12-10T03:27:09;-1.80;99.90
46730;DHT22;32476;50.002;11.854;2022-12-10T03:29:50;-1.80;99.90
46730;DHT22;32476;50.002;11.854;2022-12-10T03:32:20;-1.80;99.90
46730;DHT22;32476;50.002;11.854;2022-12-10T03:34:50;-1.80;99.90
46730;DHT22;32476;50.002;11.854;2022-12-10T03:37:19;-1.80;99.90
46730;DHT22;32476;50.002;11.854;2022-12-10T03:39:46;-1.80;99.90
46730;DHT22;32476;50.002;11.854;2022-12-10T03:42:12;-1.70;99.90
46730;DHT22;32476;50.002;11.854;2022-12-10T03:44:39;-1.80;99.90
46730;DHT22;32476;50.002;11.854;2022-12-10T03:47:11;-1.80;99.90
46730;DHT22;32476;50.002;11.854;2022-12-10T03:49:41;-1.80;99.90
46730;DHT22;32476;50.002;11.854;2022-12-10T03:52:07;-1.70;99.90
46730;DHT22;32476;50.002;11.854;2022-12-10T03:54:33;-1.80;99.90
46730;DHT22;32476;50.002;11.854;2022-12-10T03:57:01;-1.70;99.90
46730;DHT22;32476;50.002;11.854;2022-12-10T03:59:27;-1.70;99.90
46730;DHT22;32476;50.002;11.854;2022-12-10T04:01:53;-1.70;99.90
46730;DHT22;32476;50.002;11.854;2022-12-10T04:04:21;-1.70;99.90
46730;DHT22;32476;50.002;11.854;2022-12-10T04:06:47;-1.70;99.90
46730;DHT22;32476;50.002;11.854;2022-12-10T04:09:15;-1.70;99.90
46730;DHT22;32476;50.002;11.854;2022-12-10T04:11:43;-1.70;99.90
46730;DHT22;32476;50.002;11.854;2022-12-10T04:14:11;-1.70;99.90
46730;DHT22;32476;50.002;11.854;2022-12-10T04:16:58;-1.70;99.90
46730;DHT22;32476;50.002;11.854;2022-12-10T04:19:25;-1.70;99.90
46730;DHT22;32476;50.002;11.854;2022-12-10T04:21:51;-1.70;99.90
46730;DHT22;32476;50.002;11.854;2022-12-10T04:24:37;-1.70;99.90
46730;DHT22;32476;50.002;11.854;2022-12-10T04:27:25;-1.70;99.90
46730;DHT22;32476;50.002;11.854;2022-12-10T04:29:55;-1.70;99.90
46730;DHT22;32476;50.002;11.854;2022-12-10T04:32:23;-1.70;99.90
46730;DHT22;32476;50.002;11.854;2022-12-10T04:34:50;-1.70;99.90
46730;DHT22;32476;50.002;11.854;2022-12-10T04:37:18;-1.70;99.90
46730;DHT22;32476;50.002;11.854;2022-12-10T04:39:44;-1.70;99.90
46730;DHT22;32476;50.002;11.854;2022-12-10T04:42:11;-1.70;99.90
46730;DHT22;32476;50.002;11.854;2022-12-10T04:44:39;-1.70;99.90
46730;DHT22;32476;50.002;11.854;2022-12-10T04:47:06;-1.70;99.90
46730;DHT22;32476;50.002;11.854;2022-12-10T04:49:34;-1.80;99.90
46730;DHT22;32476;50.002;11.854;2022-12-10T04:52:02;-1.80;99.90
46730;DHT22;32476;50.002;11.854;2022-12-10T04:54:29;-1.70;99.90
46730;DHT22;32476;50.002;11.854;2022-12-10T04:56:55;-1.80;99.90
46730;DHT22;32476;50.002;11.854;2022-12-10T04:59:22;-1.80;99.90
46730;DHT22;32476;50.002;11.854;2022-12-10T05:01:49;-1.70;99.90
46730;DHT22;32476;50.002;11.854;2022-12-10T05:04:17;-1.70;99.90
46730;DHT22;32476;50.002;11.854;2022-12-10T05:06:48;-1.70;99.90
46730;DHT22;32476;50.002;11.854;2022-12-10T05:09:15;-1.80;99.90
46730;DHT22;32476;50.002;11.854;2022-12-10T05:11:42;-1.70;99.90
46730;DHT22;32476;50.002;11.854;2022-12-10T05:14:12;-1.70;99.90
46730;DHT22;32476;50.002;11.854;2022-12-10T05:16:39;-1.80;99.90
46730;DHT22;32476;50.002;11.854;2022-12-10T05:19:05;-1.70;99.90
46730;DHT22;32476;50.002;11.854;2022-12-10T05:21:32;-1.70;99.90
46730;DHT22;32476;50.002;11.854;2022-12-10T05:24:18;-1.80;99.90
46730;DHT22;32476;50.002;11.854;2022-12-10T05:26:45;-1.70;99.90
46730;DHT22;32476;50.002;11.854;2022-12-10T05:29:12;-1.70;99.90
46730;DHT22;32476;50.002;11.854;2022-12-10T05:31:39;-1.80;99.90
46730;DHT22;32476;50.002;11.854;2022-12-10T05:34:06;-1.80;99.90
46730;DHT22;32476;50.002;11.854;2022-12-10T05:36:34;-1.80;99.90
46730;DHT22;32476;50.002;11.854;2022-12-10T05:39:00;-1.80;99.90
46730;DHT22;32476;50.002;11.854;2022-12-10T05:41:30;-1.70;99.90
46730;DHT22;32476;50.002;11.854;2022-12-10T05:43:58;-1.70;99.90
46730;DHT22;32476;50.002;11.854;2022-12-10T05:46:27;-1.70;99.90
46730;DHT22;32476;50.002;11.854;2022-12-10T05:48:56;-1.70;99.90
46730;DHT22;32476;50.002;11.854;2022-12-10T05:51:28;-1.80;99.90
46730;DHT22;32476;50.002;11.854;2022-12-10T05:53:58;-1.80;99.90
46730;DHT22;32476;50.002;11.854;2022-12-10T05:56:26;-1.80;99.90
46730;DHT22;32476;50.002;11.854;2022-12-10T05:58:54;-1.80;99.90
46730;DHT22;32476;50.002;11.854;2022-12-10T06:01:27;-1.80;99.90
46730;DHT22;32476;50.002;11.854;2022-12-10T06:03:59;-1.80;99.90
46730;DHT22;32476;50.002;11.854;2022-12-10T06:06:33;-1.80;99.90
46730;DHT22;32476;50.002;11.854;2022-12-10T06:09:01;-1.80;99.90
46730;DHT22;32476;50.002;11.854;2022-12-10T06:11:29;-1.90;99.90
46730;DHT22;32476;50.002;11.854;2022-12-10T06:13:56;-1.80;99.90
46730;DHT22;32476;50.002;11.854;2022-12-10T06:16:25;-1.80;99.90
46730;DHT22;32476;50.002;11.854;2022-12-10T06:18:53;-1.80;99.90
46730;DHT22;32476;50.002;11.854;2022-12-10T06:21:20;-1.80;99.90
46730;DHT22;32476;50.002;11.854;2022-12-10T06:23:47;-1.90;99.90
46730;DHT22;32476;50.002;11.854;2022-12-10T06:26:18;-1.80;99.90
46730;DHT22;32476;50.002;11.854;2022-12-10T06:28:46;-1.90;99.90
46730;DHT22;32476;50.002;11.854;2022-12-10T06:31:15;-1.90;99.90
46730;DHT22;32476;50.002;11.854;2022-12-10T06:33:42;-1.90;99.90
46730;DHT22;32476;50.002;11.854;2022-12-10T06:36:10;-1.90;99.90
46730;DHT22;32476;50.002;11.854;2022-12-10T06:38:40;-1.90;99.90
46730;DHT22;32476;50.002;11.854;2022-12-10T06:41:11;-1.90;99.90
46730;DHT22;32476;50.002;11.854;2022-12-10T06:43:40;-1.90;99.90
46730;DHT22;32476;50.002;11.854;2022-12-10T06:46:08;-1.90;99.90
46730;DHT22;32476;50.002;11.854;2022-12-10T06:48:36;-1.90;99.90
46730;DHT22;32476;50.002;11.854;2022-12-10T06:51:04;-1.90;99.90
46730;DHT22;32476;50.002;11.854;2022-12-10T06:53:32;-1.90;99.90
46730;DHT22;32476;50.002;11.854;2022-12-10T06:56:00;-1.90;99.90
46730;DHT22;32476;50.002;11.854;2022-12-10T06:58:29;-1.90;99.90
46730;DHT22;32476;50.002;11.854;2022-12-10T07:01:07;-2.00;99.90
46730;DHT22;32476;50.002;11.854;2022-12-10T07:03:37;-1.90;99.90
46730;DHT22;32476;50.002;11.854;2022-12-10T07:06:06;-1.90;99.90
46730;DHT22;32476;50.002;11.854;2022-12-10T07:08:33;-1.90;99.90
46730;DHT22;32476;50.002;11.854;2022-12-10T07:11:09;-1.90;99.90
46730;DHT22;32476;50.002;11.854;2022-12-10T07:13:37;-1.90;99.90
46730;DHT22;32476;50.002;11.854;2022-12-10T07:16:22;-2.00;99.90
46730;DHT22;32476;50.002;11.854;2022-12-10T07:18:51;-1.90;99.90
46730;DHT22;32476;50.002;11.854;2022-12-10T07:21:22;-1.90;99.90
46730;DHT22;32476;50.002;11.854;2022-12-10T07:23:50;-1.90;99.90
46730;DHT22;32476;50.002;11.854;2022-12-10T07:26:21;-1.90;99.90
46730;DHT22;32476;50.002;11.854;2022-12-10T07:28:47;-1.90;99.90
46730;DHT22;32476;50.002;11.854;2022-12-10T07:31:13;-1.90;99.90
46730;DHT22;32476;50.002;11.854;2022-12-10T07:33:41;-1.90;99.90
46730;DHT22;32476;50.002;11.854;2022-12-10T07:36:09;-1.90;99.90
46730;DHT22;32476;50.002;11.854;2022-12-10T07:38:37;-1.90;99.90
46730;DHT22;32476;50.002;11.854;2022-12-10T07:41:07;-1.90;99.90
46730;DHT22;32476;50.002;11.854;2022-12-10T07:43:36;-1.90;99.90
46730;DHT22;32476;50.002;11.854;2022-12-10T07:46:12;-1.80;99.90
46730;DHT22;32476;50.002;11.854;2022-12-10T07:48:48;-1.80;99.90
46730;DHT22;32476;50.002;11.854;2022-12-10T07:51:17;-1.80;99.90
46730;DHT22;32476;50.002;11.854;2022-12-10T07:53:44;-1.80;99.90
46730;DHT22;32476;50.002;11.854;2022-12-10T07:56:12;-1.70;99.90
46730;DHT22;32476;50.002;11.854;2022-12-10T07:58:45;-1.80;99.90
46730;DHT22;32476;50.002;11.854;2022-12-10T08:01:15;-1.80;99.90
46730;DHT22;32476;50.002;11.854;2022-12-10T08:03:42;-1.80;99.90
46730;DHT22;32476;50.002;11.854;2022-12-10T08:06:11;-1.70;99.90
46730;DHT22;32476;50.002;11.854;2022-12-10T08:08:42;-1.70;99.90
46730;DHT22;32476;50.002;11.854;2022-12-10T08:11:09;-1.70;99.90
46730;DHT22;32476;50.002;11.854;2022-12-10T08:13:36;-1.70;99.90
46730;DHT22;32476;50.002;11.854;2022-12-10T08:18:41;-1.60;99.90
46730;DHT22;32476;50.002;11.854;2022-12-10T08:21:11;-1.50;99.90
46730;DHT22;32476;50.002;11.854;2022-12-10T08:23:39;-1.50;99.90
46730;DHT22;32476;50.002;11.854;2022-12-10T08:26:07;-1.40;99.90
46730;DHT22;32476;50.002;11.854;2022-12-10T08:28:36;-1.30;99.90
46730;DHT22;32476;50.002;11.854;2022-12-10T08:31:03;-1.30;99.90
46730;DHT22;32476;50.002;11.854;2022-12-10T08:33:29;-1.20;99.90
46730;DHT22;32476;50.002;11.854;2022-12-10T08:36:00;-1.20;99.90
46730;DHT22;32476;50.002;11.854;2022-12-10T08:38:27;-1.10;99.90
46730;DHT22;32476;50.002;11.854;2022-12-10T08:40:53;-1.10;99.90
46730;DHT22;32476;50.002;11.854;2022-12-10T08:43:21;-1.10;99.90
46730;DHT22;32476;50.002;11.854;2022-12-10T08:45:47;-1.10;99.90
46730;DHT22;32476;50.002;11.854;2022-12-10T08:48:12;-1.10;99.90
46730;DHT22;32476;50.002;11.854;2022-12-10T08:50:40;-1.00;99.90
46730;DHT22;32476;50.002;11.854;2022-12-10T08:53:06;-1.00;99.90
46730;DHT22;32476;50.002;11.854;2022-12-10T08:55:32;-1.00;99.90
46730;DHT22;32476;50.002;11.854;2022-12-10T08:58:01;-1.00;99.90
46730;DHT22;32476;50.002;11.854;2022-12-10T09:00:26;-0.90;99.90
46730;DHT22;32476;50.002;11.854;2022-12-10T09:02:53;-0.80;99.90
46730;DHT22;32476;50.002;11.854;2022-12-10T09:05:20;-0.80;99.90
46730;DHT22;32476;50.002;11.854;2022-12-10T09:07:46;-0.70;99.90
46730;DHT22;32476;50.002;11.854;2022-12-10T09:10:12;-0.70;99.90
46730;DHT22;32476;50.002;11.854;2022-12-10T09:12:40;-0.60;99.90
46730;DHT22;32476;50.002;11.854;2022-12-10T09:15:08;-0.70;99.90
46730;DHT22;32476;50.002;11.854;2022-12-10T09:17:36;-0.70;99.90
46730;DHT22;32476;50.002;11.854;2022-12-10T09:20:06;-0.60;99.90
46730;DHT22;32476;50.002;11.854;2022-12-10T09:22:32;-0.50;99.90
46730;DHT22;32476;50.002;11.854;2022-12-10T09:25:04;-0.40;99.90
46730;DHT22;32476;50.002;11.854;2022-12-10T09:27:33;-0.40;99.90
46730;DHT22;32476;50.002;11.854;2022-12-10T09:29:59;-0.30;99.90
46730;DHT22;32476;50.002;11.854;2022-12-10T09:32:25;-0.30;99.90
46730;DHT22;32476;50.002;11.854;2022-12-10T09:34:53;-0.20;99.90
46730;DHT22;32476;50.002;11.854;2022-12-10T09:37:19;-0.20;99.90
46730;DHT22;32476;50.002;11.854;2022-12-10T09:39:45;-0.20;99.90
46730;DHT22;32476;50.002;11.854;2022-12-10T09:42:31;-0.20;99.90
46730;DHT22;32476;50.002;11.854;2022-12-10T09:49:17;-0.50;99.90
46730;DHT22;32476;50.002;11.854;2022-12-10T09:51:46;-0.60;99.90
46730;DHT22;32476;50.002;11.854;2022-12-10T09:56:51;-0.70;99.90
46730;DHT22;32476;50.002;11.854;2022-12-10T09:59:40;-0.70;99.90
46730;DHT22;32476;50.002;11.854;2022-12-10T10:04:43;-0.70;99.90
46730;DHT22;32476;50.002;11.854;2022-12-10T10:07:21;-0.70;99.90
46730;DHT22;32476;50.002;11.854;2022-12-10T10:09:56;-0.80;99.90
46730;DHT22;32476;50.002;11.854;2022-12-10T10:12:25;-0.90;99.90
46730;DHT22;32476;50.002;11.854;2022-12-10T10:14:54;-0.90;99.90
46730;DHT22;32476;50.002;11.854;2022-12-10T10:17:28;-1.00;99.90
46730;DHT22;32476;50.002;11.854;2022-12-10T10:20:01;-1.00;99.90
46730;DHT22;32476;50.002;11.854;2022-12-10T10:22:27;-1.00;99.90
46730;DHT22;32476;50.002;11.854;2022-12-10T10:24:53;-1.00;99.90
46730;DHT22;32476;50.002;11.854;2022-12-10T10:27:24;-0.80;99.90
46730;DHT22;32476;50.002;11.854;2022-12-10T10:29:54;-0.80;99.90
46730;DHT22;32476;50.002;11.854;2022-12-10T10:32:25;-0.80;99.90
46730;DHT22;32476;50.002;11.854;2022-12-10T10:35:41;-0.80;99.90
46730;DHT22;32476;50.002;11.854;2022-12-10T10:38:20;-0.70;99.90
46730;DHT22;32476;50.002;11.854;2022-12-10T10:40:57;-0.70;99.90
46730;DHT22;32476;50.002;11.854;2022-12-10T10:46:01;-0.50;99.90
46730;DHT22;32476;50.002;11.854;2022-12-10T10:48:29;-0.50;99.90
46730;DHT22;32476;50.002;11.854;2022-12-10T11:04:55;-0.50;99.90
46730;DHT22;32476;50.002;11.854;2022-12-10T11:07:36;-0.50;99.90
46730;DHT22;32476;50.002;11.854;2022-12-10T11:10:20;-0.50;99.90
46730;DHT22;32476;50.002;11.854;2022-12-10T11:12:57;-0.50;99.90
46730;DHT22;32476;50.002;11.854;2022-12-10T11:15:35;-0.30;99.90
46730;DHT22;32476;50.002;11.854;2022-12-10T11:18:35;-0.20;99.90
46730;DHT22;32476;50.002;11.854;2022-12-10T11:21:16;-0.20;99.90
46730;DHT22;32476;50.002;11.854;2022-12-10T11:23:51;-0.20;99.90
46730;DHT22;32476;50.002;11.854;2022-12-10T11:29:08;0.00;99.90
46730;DHT22;32476;50.002;11.854;2022-12-10T11:37:29;-0.50;99.90
46730;DHT22;32476;50.002;11.854;2022-12-10T11:57:39;-0.40;99.90
46730;DHT22;32476;50.002;11.854;2022-12-10T12:00:23;-0.20;99.90
46730;DHT22;32476;50.002;11.854;2022-12-10T12:09:05;-0.50;99.90
46730;DHT22;32476;50.002;11.854;2022-12-10T12:17:21;-0.60;99.90
46730;DHT22;32476;50.002;11.854;2022-12-10T12:19:53;-0.50;99.90
46730;DHT22;32476;50.002;11.854;2022-12-10T12:22:28;-0.40;99.90
46730;DHT22;32476;50.002;11.854;2022-12-10T12:25:05;-0.50;99.90
46730;DHT22;32476;50.002;11.854;2022-12-10T12:27:39;-0.50;99.90
46730;DHT22;32476;50.002;11.854;2022-12-10T12:30:15;-0.80;99.90
46730;DHT22;32476;50.002;11.854;2022-12-10T12:35:21;-0.90;99.90
46730;DHT22;32476;50.002;11.854;2022-12-10T12:37:58;-0.80;99.90
46730;DHT22;32476;50.002;11.854;2022-12-10T12:40:34;-0.80;99.90
46730;DHT22;32476;50.002;11.854;2022-12-10T12:43:10;-0.60;99.90
46730;DHT22;32476;50.002;11.854;2022-12-10T12:45:48;-0.70;99.90
46730;DHT22;32476;50.002;11.854;2022-12-10T12:51:26;-0.50;99.90
46730;DHT22;32476;50.002;11.854;2022-12-10T12:53:59;-0.60;99.90
46730;DHT22;32476;50.002;11.854;2022-12-10T12:56:39;-0.70;99.90
46730;DHT22;32476;50.002;11.854;2022-12-10T12:59:35;-0.90;99.90
46730;DHT22;32476;50.002;11.854;2022-12-10T13:02:22;-0.90;99.90
46730;DHT22;32476;50.002;11.854;2022-12-10T13:04:51;-1.10;99.90
46730;DHT22;32476;50.002;11.854;2022-12-10T13:09:48;-1.20;99.90
46730;DHT22;32476;50.002;11.854;2022-12-10T13:12:30;-1.30;99.90
46730;DHT22;32476;50.002;11.854;2022-12-10T13:24:11;-1.50;99.90
46730;DHT22;32476;50.002;11.854;2022-12-10T13:27:01;-1.60;99.90
46730;DHT22;32476;50.002;11.854;2022-12-10T13:49:04;-1.60;99.90
46730;DHT22;32476;50.002;11.854;2022-12-10T14:00:46;-1.50;99.90
46730;DHT22;32476;50.002;11.854;2022-12-10T14:06:37;-1.40;99.90
46730;DHT22;32476;50.002;11.854;2022-12-10T14:09:12;-1.50;99.90
46730;DHT22;32476;50.002;11.854;2022-12-10T14:11:43;-1.60;99.90
46730;DHT22;32476;50.002;11.854;2022-12-10T14:14:30;-1.70;99.90
46730;DHT22;32476;50.002;11.854;2022-12-10T14:17:12;-1.80;99.90
46730;DHT22;32476;50.002;11.854;2022-12-10T14:19:45;-1.70;99.90
46730;DHT22;32476;50.002;11.854;2022-12-10T14:22:16;-1.70;99.90
46730;DHT22;32476;50.002;11.854;2022-12-10T14:24:49;-1.60;99.90
46730;DHT22;32476;50.002;11.854;2022-12-10T14:27:24;-1.60;99.90
46730;DHT22;32476;50.002;11.854;2022-12-10T14:30:02;-1.60;99.90
46730;DHT22;32476;50.002;11.854;2022-12-10T14:32:36;-1.60;99.90
46730;DHT22;32476;50.002;11.854;2022-12-10T14:35:07;-1.70;99.90
46730;DHT22;32476;50.002;11.854;2022-12-10T14:37:42;-1.80;99.90
46730;DHT22;32476;50.002;11.854;2022-12-10T14:43:23;-1.90;99.90
46730;DHT22;32476;50.002;11.854;2022-12-10T14:45:56;-1.90;99.90
46730;DHT22;32476;50.002;11.854;2022-12-10T14:48:24;-2.00;99.90
46730;DHT22;32476;50.002;11.854;2022-12-10T14:50:51;-2.10;99.90
46730;DHT22;32476;50.002;11.854;2022-12-10T14:53:24;-2.10;99.90
46730;DHT22;32476;50.002;11.854;2022-12-10T14:55:55;-2.10;99.90
46730;DHT22;32476;50.002;11.854;2022-12-10T15:01:05;-2.20;99.90
46730;DHT22;32476;50.002;11.854;2022-12-10T15:03:41;-2.20;99.90
46730;DHT22;32476;50.002;11.854;2022-12-10T15:06:17;-2.40;99.90
46730;DHT22;32476;50.002;11.854;2022-12-10T15:08:46;-2.40;99.90
46730;DHT22;32476;50.002;11.854;2022-12-10T15:11:17;-2.40;99.90
46730;DHT22;32476;50.002;11.854;2022-12-10T15:13:51;-2.50;99.90
46730;DHT22;32476;50.002;11.854;2022-12-10T15:16:29;-2.50;99.90
46730;DHT22;32476;50.002;11.854;2022-12-10T15:19:19;-2.50;99.90
46730;DHT22;32476;50.002;11.854;2022-12-10T15:21:47;-2.50;99.90
46730;DHT22;32476;50.002;11.854;2022-12-10T15:24:27;-2.50;99.90
46730;DHT22;32476;50.002;11.854;2022-12-10T15:26:58;-2.60;99.90
46730;DHT22;32476;50.002;11.854;2022-12-10T15:29:29;-2.60;99.90
46730;DHT22;32476;50.002;11.854;2022-12-10T15:32:04;-2.70;99.90
46730;DHT22;32476;50.002;11.854;2022-12-10T15:34:39;-2.70;99.90
46730;DHT22;32476;50.002;11.854;2022-12-10T15:37:23;-2.80;99.90
46730;DHT22;32476;50.002;11.854;2022-12-10T15:39:54;-2.80;99.90
46730;DHT22;32476;50.002;11.854;2022-12-10T15:47:38;-2.90;99.90
46730;DHT22;32476;50.002;11.854;2022-12-10T15:50:06;-2.90;99.90
46730;DHT22;32476;50.002;11.854;2022-12-10T15:52:32;-2.90;99.90
46730;DHT22;32476;50.002;11.854;2022-12-10T15:54:58;-2.90;99.90
46730;DHT22;32476;50.002;11.854;2022-12-10T15:57:30;-2.90;99.90
46730;DHT22;32476;50.002;11.854;2022-12-10T15:59:59;-2.90;99.90
46730;DHT22;32476;50.002;11.854;2022-12-10T16:02:51;-2.90;99.90
46730;DHT22;32476;50.002;11.854;2022-12-10T16:08:25;-2.90;99.90
46730;DHT22;32476;50.002;11.854;2022-12-10T16:10:56;-3.00;99.90
46730;DHT22;32476;50.002;11.854;2022-12-10T16:13:32;-3.00;99.90
46730;DHT22;32476;50.002;11.854;2022-12-10T16:16:06;-3.00;99.90
46730;DHT22;32476;50.002;11.854;2022-12-10T16:18:35;-3.00;99.90
46730;DHT22;32476;50.002;11.854;2022-12-10T16:21:06;-3.00;99.90
46730;DHT22;32476;50.002;11.854;2022-12-10T16:23:33;-3.00;99.90
46730;DHT22;32476;50.002;11.854;2022-12-10T16:26:02;-3.00;99.90
46730;DHT22;32476;50.002;11.854;2022-12-10T16:28:34;-3.00;99.90
46730;DHT22;32476;50.002;11.854;2022-12-10T16:31:02;-3.10;99.90
46730;DHT22;32476;50.002;11.854;2022-12-10T16:33:28;-3.10;99.90
46730;DHT22;32476;50.002;11.854;2022-12-10T16:35:55;-3.10;99.90
46730;DHT22;32476;50.002;11.854;2022-12-10T16:38:24;-3.10;99.90
46730;DHT22;32476;50.002;11.854;2022-12-10T16:40:51;-3.10;99.90
46730;DHT22;32476;50.002;11.854;2022-12-10T16:43:19;-3.10;99.90
46730;DHT22;32476;50.002;11.854;2022-12-10T16:45:50;-3.10;99.90
46730;DHT22;32476;50.002;11.854;2022-12-10T16:48:17;-3.10;99.90
46730;DHT22;32476;50.002;11.854;2022-12-10T16:50:44;-3.10;99.90
46730;DHT22;32476;50.002;11.854;2022-12-10T16:55:51;-3.20;99.90
46730;DHT22;32476;50.002;11.854;2022-12-10T16:58:19;-3.20;99.90
46730;DHT22;32476;50.002;11.854;2022-12-10T17:00:51;-3.20;99.90
46730;DHT22;32476;50.002;11.854;2022-12-10T17:03:23;-3.20;99.90
46730;DHT22;32476;50.002;11.854;2022-12-10T17:05:52;-3.20;99.90
46730;DHT22;32476;50.002;11.854;2022-12-10T17:08:21;-3.20;99.90
46730;DHT22;32476;50.002;11.854;2022-12-10T17:10:48;-3.20;99.90
46730;DHT22;32476;50.002;11.854;2022-12-10T17:13:34;-3.20;99.90
46730;DHT22;32476;50.002;11.854;2022-12-10T17:16:02;-3.20;99.90
46730;DHT22;32476;50.002;11.854;2022-12-10T17:18:29;-3.20;99.90
46730;DHT22;32476;50.002;11.854;2022-12-10T17:20:56;-3.20;99.90
46730;DHT22;32476;50.002;11.854;2022-12-10T17:23:22;-3.20;99.90
46730;DHT22;32476;50.002;11.854;2022-12-10T17:25:49;-3.20;99.90
46730;DHT22;32476;50.002;11.854;2022-12-10T17:28:19;-3.20;99.90
46730;DHT22;32476;50.002;11.854;2022-12-10T17:30:47;-3.20;99.90
46730;DHT22;32476;50.002;11.854;2022-12-10T17:33:19;-3.20;99.90
46730;DHT22;32476;50.002;11.854;2022-12-10T17:35:50;-3.20;99.90
46730;DHT22;32476;50.002;11.854;2022-12-10T17:38:23;-3.20;99.90
46730;DHT22;32476;50.002;11.854;2022-12-10T17:40:52;-3.20;99.90
46730;DHT22;32476;50.002;11.854;2022-12-10T17:43:19;-3.20;99.90
46730;DHT22;32476;50.002;11.854;2022-12-10T17:45:45;-3.20;99.90
46730;DHT22;32476;50.002;11.854;2022-12-10T17:48:15;-3.20;99.90
46730;DHT22;32476;50.002;11.854;2022-12-10T17:50:44;-3.20;99.90
46730;DHT22;32476;50.002;11.854;2022-12-10T17:53:13;-3.20;99.90
46730;DHT22;32476;50.002;11.854;2022-12-10T17:55:44;-3.20;99.90
46730;DHT22;32476;50.002;11.854;2022-12-10T17:58:13;-3.20;99.90
46730;DHT22;32476;50.002;11.854;2022-12-10T18:00:39;-3.20;99.90
46730;DHT22;32476;50.002;11.854;2022-12-10T18:03:05;-3.20;99.90
46730;DHT22;32476;50.002;11.854;2022-12-10T18:05:32;-3.20;99.90
46730;DHT22;32476;50.002;11.854;2022-12-10T18:07:58;-3.20;99.90
46730;DHT22;32476;50.002;11.854;2022-12-10T18:10:27;-3.20;99.90